Time;durP1;ratioP1;P1;durP2;ratioP2;P2;SDS_P1;SDS_P2;PMS_P1;PMS_P2;Temp;Humidity;BMP_temperature;BMP_pressure;BME280_temperature;BME280_humidity;BME280_pressure;Samples;Min_cycle;Max_cycle;Signal;HPM_P1;HPM_P2
2022/11/27 00:01:46;;;;;;;0.52;0.52;;;5.80;99.90;;;;;;5021454;28;20475;-87
2022/11/27 00:07:04;;;;;;;1.90;0.22;;;5.80;99.90;;;;;;5037898;28;20057;-86
2022/11/27 00:09:32;;;;;;;0.25;0.25;;;5.80;99.90;;;;;;5019490;28;20049;-86
2022/11/27 00:11:57;;;;;;;0.20;0.05;;;5.70;99.90;;;;;;5005380;28;20103;-86
2022/11/27 00:14:32;;;;;;;0.57;0.30;;;7.10;99.90;;;;;;5020813;28;20542;-86
2022/11/27 00:17:04;;;;;;;0.40;0.40;;;5.70;99.90;;;;;;5021761;28;20048;-87
2022/11/27 00:19:29;;;;;;;0.30;0.30;;;5.80;99.90;;;;;;5004098;28;20040;-87
2022/11/27 00:21:55;;;;;;;0.67;0.33;;;5.70;99.90;;;;;;5020952;28;20103;-87
2022/11/27 00:24:21;;;;;;;0.50;0.40;;;5.70;99.90;;;;;;5004542;28;20049;-86
2022/11/27 00:26:48;;;;;;;1.63;0.40;;;5.80;99.90;;;;;;5020935;28;20088;-86
2022/11/27 00:29:14;;;;;;;0.47;0.47;;;5.70;99.90;;;;;;5019994;28;20041;-86
2022/11/27 00:31:40;;;;;;;1.43;0.40;;;5.70;99.90;;;;;;5004490;28;20088;-86
2022/11/27 00:34:12;;;;;;;0.57;0.40;;;5.80;99.90;;;;;;5021012;28;20334;-86
2022/11/27 00:36:38;;;;;;;0.10;0.10;;;5.70;99.90;;;;;;5020962;28;20135;-86
2022/11/27 00:39:07;;;;;;;0.40;0.30;;;5.70;99.90;;;;;;5021221;28;20128;-86
2022/11/27 00:41:37;;;;;;;1.42;0.40;;;5.60;99.90;;;;;;5020422;28;20049;-87
2022/11/27 00:44:04;;;;;;;1.60;0.57;;;5.60;99.90;;;;;;5020815;28;20053;-86
2022/11/27 00:46:33;;;;;;;0.25;0.25;;;5.70;99.90;;;;;;5020139;28;20048;-85
2022/11/27 00:49:03;;;;;;;1.38;0.70;;;5.70;99.90;;;;;;5048927;28;20056;-86
2022/11/27 00:51:30;;;;;;;1.00;0.75;;;5.60;99.90;;;;;;5039934;28;20052;-86
2022/11/27 00:53:56;;;;;;;0.40;0.40;;;5.60;99.90;;;;;;5040397;28;20040;-86
2022/11/27 00:56:33;;;;;;;0.30;0.30;;;5.60;99.90;;;;;;5040138;28;20403;-87
2022/11/27 00:59:00;;;;;;;0.93;0.32;;;6.20;99.90;;;;;;5056703;28;20108;-86
2022/11/27 01:01:33;;;;;;;0.28;0.28;;;5.70;99.90;;;;;;5040066;28;20053;-86
2022/11/27 01:04:03;;;;;;;0.82;0.40;;;5.50;99.90;;;;;;5040532;28;20083;-86
2022/11/27 01:06:29;;;;;;;0.80;0.25;;;4.90;99.90;;;;;;5040013;28;20140;-86
2022/11/27 01:08:56;;;;;;;0.60;0.60;;;5.50;99.90;;;;;;5039550;28;20402;-86
2022/11/27 01:11:25;;;;;;;0.77;0.30;;;4.50;99.90;;;;;;5056300;28;20044;-86
2022/11/27 01:13:57;;;;;;;0.30;0.30;;;5.40;99.90;;;;;;5040174;28;20076;-86
2022/11/27 01:16:25;;;;;;;0.50;0.40;;;5.50;99.90;;;;;;5039728;28;20055;-86
2022/11/27 01:18:54;;;;;;;1.48;0.50;;;6.40;99.90;;;;;;5039834;28;20048;-86
2022/11/27 01:21:23;;;;;;;1.58;0.47;;;6.00;99.90;;;;;;5039028;28;20051;-87
2022/11/27 01:23:49;;;;;;;1.75;0.60;;;5.40;99.90;;;;;;5056247;28;20044;-86
2022/11/27 01:26:17;;;;;;;0.40;0.40;;;5.40;99.90;;;;;;5040107;28;20084;-86
2022/11/27 01:28:43;;;;;;;0.68;0.30;;;5.40;99.90;;;;;;5039694;28;20525;-86
2022/11/27 01:31:20;;;;;;;1.17;0.75;;;6.70;99.90;;;;;;5056879;28;20048;-86
2022/11/27 01:33:46;;;;;;;0.75;0.45;;;5.30;99.90;;;;;;5039822;28;20094;-86
2022/11/27 01:36:14;;;;;;;1.48;0.95;;;5.40;99.90;;;;;;5039808;28;20395;-86
2022/11/27 01:38:45;;;;;;;1.27;0.60;;;5.30;99.90;;;;;;5022736;28;20454;-86
2022/11/27 01:41:32;;;;;;;0.50;0.22;;;5.30;99.90;;;;;;5056033;28;20131;-85
2022/11/27 01:44:01;;;;;;;1.65;0.32;;;4.90;99.90;;;;;;5039782;28;20171;-86
2022/11/27 01:46:42;;;;;;;1.05;0.32;;;5.40;99.90;;;;;;5038704;28;20529;-86
2022/11/27 01:49:08;;;;;;;0.38;0.35;;;5.20;99.90;;;;;;5038976;28;20403;-86
2022/11/27 01:51:40;;;;;;;0.10;0.10;;;6.50;99.90;;;;;;5038649;28;20056;-85
2022/11/27 01:54:09;;;;;;;0.65;0.50;;;5.30;99.90;;;;;;5039061;28;20441;-86
2022/11/27 01:56:37;;;;;;;0.15;0.15;;;5.20;99.90;;;;;;5038879;28;20487;-86
2022/11/27 01:59:03;;;;;;;0.22;0.22;;;5.10;99.90;;;;;;5038923;28;20048;-86
2022/11/27 02:01:31;;;;;;;0.30;0.30;;;5.20;99.90;;;;;;5038254;28;20080;-86
2022/11/27 02:04:03;;;;;;;0.35;0.35;;;6.30;99.90;;;;;;5056021;28;20048;-86
2022/11/27 02:06:34;;;;;;;1.05;0.38;;;5.20;99.90;;;;;;5055134;28;20048;-86
2022/11/27 02:09:00;;;;;;;0.30;0.15;;;4.90;99.90;;;;;;5022614;28;20075;-85
2022/11/27 02:11:52;;;;;;;0.40;0.40;;;5.10;99.90;;;;;;5038794;28;20055;-86
2022/11/27 02:14:42;;;;;;;0.43;0.30;;;5.20;99.90;;;;;;5039289;28;20050;-86
2022/11/27 02:17:16;;;;;;;0.50;0.50;;;5.10;99.90;;;;;;5038367;28;20113;-86
2022/11/27 02:20:10;;;;;;;0.40;0.40;;;6.50;99.90;;;;;;5038235;28;20045;-86
2022/11/27 02:23:00;;;;;;;0.30;0.30;;;5.10;99.90;;;;;;5038605;28;20094;-86
2022/11/27 02:25:51;;;;;;;1.13;0.57;;;5.00;99.90;;;;;;5038796;28;20123;-86
2022/11/27 02:28:47;;;;;;;0.40;0.40;;;5.00;99.90;;;;;;5055097;28;20127;-86
2022/11/27 02:31:44;;;;;;;1.75;0.52;;;5.00;99.90;;;;;;5038166;28;20076;-86
2022/11/27 02:34:19;;;;;;;2.05;0.28;;;5.00;99.90;;;;;;5027596;28;20095;-86
2022/11/27 02:36:53;;;;;;;1.73;0.50;;;4.90;99.90;;;;;;5054322;28;20715;-86
2022/11/27 02:39:29;;;;;;;1.48;0.55;;;5.30;99.90;;;;;;5055058;28;20044;-86
2022/11/27 02:42:01;;;;;;;0.63;0.50;;;4.90;99.90;;;;;;5038845;28;20131;-86
2022/11/27 02:44:31;;;;;;;0.15;0.15;;;4.90;99.90;;;;;;5055162;28;20104;-86
2022/11/27 02:47:00;;;;;;;1.10;0.50;;;4.90;99.90;;;;;;5038076;28;20088;-85
2022/11/27 02:49:27;;;;;;;0.93;0.70;;;4.80;99.90;;;;;;5037983;28;20048;-87
2022/11/27 02:51:56;;;;;;;0.50;0.50;;;4.90;99.90;;;;;;5038213;28;20053;-86
2022/11/27 02:54:28;;;;;;;2.22;1.15;;;6.20;99.90;;;;;;5055107;28;20049;-85
2022/11/27 02:56:56;;;;;;;0.30;0.30;;;5.00;99.90;;;;;;5037802;28;20052;-85
2022/11/27 02:59:29;;;;;;;0.82;0.30;;;4.90;99.90;;;;;;5038463;28;20036;-85
2022/11/27 03:02:00;;;;;;;0.98;0.38;;;5.00;99.90;;;;;;5054835;28;20182;-86
2022/11/27 03:04:43;;;;;;;1.05;0.30;;;5.00;99.90;;;;;;5055235;28;20056;-86
2022/11/27 03:07:15;;;;;;;0.35;0.35;;;4.90;99.90;;;;;;5038081;28;20396;-86
2022/11/27 03:09:45;;;;;;;1.55;0.73;;;6.30;99.90;;;;;;5054716;28;20435;-86
2022/11/27 03:12:12;;;;;;;0.38;0.28;;;6.20;99.90;;;;;;5037796;28;20044;-86
2022/11/27 03:14:39;;;;;;;0.40;0.20;;;5.00;99.90;;;;;;5021617;28;20473;-85
2022/11/27 03:17:18;;;;;;;0.10;0.10;;;6.10;99.90;;;;;;5037927;28;20105;-86
2022/11/27 03:19:54;;;;;;;0.10;0.10;;;4.90;99.90;;;;;;5037602;28;20487;-86
2022/11/27 03:22:20;;;;;;;1.27;0.68;;;4.90;99.90;;;;;;5054944;28;20094;-86
2022/11/27 03:24:48;;;;;;;0.30;0.25;;;5.50;99.90;;;;;;5054512;28;20520;-86
2022/11/27 03:27:20;;;;;;;0.95;0.40;;;5.80;99.90;;;;;;5037769;28;20044;-85
2022/11/27 03:29:50;;;;;;;0.88;0.32;;;4.90;99.90;;;;;;5054088;28;20075;-86
2022/11/27 03:32:17;;;;;;;0.08;0.08;;;4.90;99.90;;;;;;5037939;28;20048;-86
2022/11/27 03:34:47;;;;;;;0.47;0.40;;;4.90;99.90;;;;;;5037993;28;20052;-86
2022/11/27 03:37:13;;;;;;;1.30;0.22;;;4.90;99.90;;;;;;5054497;28;20404;-86
2022/11/27 03:39:39;;;;;;;0.38;0.38;;;5.50;99.90;;;;;;5021419;28;20087;-86
2022/11/27 03:42:29;;;;;;;0.73;0.47;;;5.50;99.90;;;;;;5037947;28;20045;-86
2022/11/27 03:45:20;;;;;;;1.80;0.47;;;5.80;99.90;;;;;;5041250;28;20297;-86
2022/11/27 03:47:54;;;;;;;0.45;0.32;;;4.90;99.90;;;;;;5040763;28;20059;-86
2022/11/27 03:50:26;;;;;;;0.20;0.20;;;4.90;99.90;;;;;;5058443;28;20131;-86
2022/11/27 03:53:19;;;;;;;0.35;0.25;;;5.10;99.90;;;;;;5057416;28;20088;-86
2022/11/27 03:56:03;;;;;;;2.00;0.28;;;4.90;99.90;;;;;;5041403;28;20059;-86
2022/11/27 03:58:42;;;;;;;0.30;0.30;;;5.00;99.90;;;;;;5057847;28;20036;-86
2022/11/27 04:01:10;;;;;;;0.13;0.13;;;6.40;99.90;;;;;;5058025;28;20048;-86
2022/11/27 04:03:36;;;;;;;0.43;0.22;;;5.10;99.90;;;;;;5057486;28;20093;-86
2022/11/27 04:06:02;;;;;;;1.90;0.97;;;5.30;99.90;;;;;;5024688;28;20376;-86
2022/11/27 04:08:31;;;;;;;0.60;0.28;;;4.90;99.90;;;;;;5041111;28;20045;-86
2022/11/27 04:10:56;;;;;;;0.38;0.38;;;5.90;99.90;;;;;;5040619;28;20048;-86
2022/11/27 04:13:27;;;;;;;1.20;0.37;;;4.90;99.90;;;;;;5057087;28;20047;-85
2022/11/27 04:15:53;;;;;;;1.02;0.57;;;4.90;99.90;;;;;;5057440;28;20055;-86
2022/11/27 04:18:19;;;;;;;0.20;0.20;;;4.90;99.90;;;;;;5040758;28;20546;-86
2022/11/27 04:20:44;;;;;;;0.10;0.10;;;4.90;99.90;;;;;;5040789;28;20109;-86
2022/11/27 04:23:10;;;;;;;0.57;0.57;;;4.10;99.90;;;;;;5041170;28;20051;-86
2022/11/27 04:25:36;;;;;;;0.40;0.40;;;6.00;99.90;;;;;;5057347;28;20135;-86
2022/11/27 04:28:04;;;;;;;0.03;0.03;;;6.20;99.90;;;;;;5056858;28;20040;-86
2022/11/27 04:30:30;;;;;;;0.38;0.13;;;4.90;99.90;;;;;;5041324;28;20135;-86
2022/11/27 04:32:56;;;;;;;0.50;0.50;;;4.90;99.90;;;;;;5032222;28;20040;-86
2022/11/27 04:35:29;;;;;;;0.63;0.20;;;4.90;99.90;;;;;;5057580;28;20090;-86
2022/11/27 04:37:58;;;;;;;0.88;0.43;;;6.30;99.90;;;;;;5024510;28;20041;-86
2022/11/27 04:40:24;;;;;;;0.52;0.45;;;4.20;99.90;;;;;;5040734;28;20051;-85
2022/11/27 04:42:50;;;;;;;0.93;0.20;;;6.00;99.90;;;;;;5040436;28;20142;-86
2022/11/27 04:45:16;;;;;;;0.30;0.30;;;5.50;99.90;;;;;;5024277;28;20136;-86
2022/11/27 04:47:42;;;;;;;0.82;0.55;;;4.80;99.90;;;;;;5056006;28;20057;-87
2022/11/27 04:50:09;;;;;;;0.73;0.30;;;4.90;99.90;;;;;;5057056;28;20049;-85
2022/11/27 04:52:35;;;;;;;;;;;4.80;99.90;;;;;;5040518;28;20044;-86
2022/11/27 04:55:02;;;;;;;0.47;0.45;;;5.70;99.90;;;;;;5039137;28;19927;-86
2022/11/27 04:57:27;;;;;;;;;;;6.00;99.90;;;;;;5041088;28;20189;-86
2022/11/27 04:59:53;;;;;;;1.30;0.30;;;4.70;99.90;;;;;;5056453;28;19975;-86
2022/11/27 05:02:19;;;;;;;0.20;0.20;;;4.80;99.90;;;;;;5040085;28;20117;-86
2022/11/27 05:04:44;;;;;;;0.40;0.40;;;4.70;99.90;;;;;;5039895;28;20051;-86
2022/11/27 05:07:10;;;;;;;0.60;0.43;;;4.90;99.90;;;;;;5024145;28;20044;-86
2022/11/27 05:09:38;;;;;;;0.73;0.60;;;6.00;99.90;;;;;;5040117;28;20044;-86
2022/11/27 05:12:04;;;;;;;0.70;0.32;;;5.30;99.90;;;;;;5056545;28;20290;-86
2022/11/27 05:14:30;;;;;;;0.60;0.20;;;4.70;99.90;;;;;;5040002;28;20048;-87
2022/11/27 05:16:57;;;;;;;1.70;0.43;;;4.70;99.90;;;;;;5023166;28;20045;-86
2022/11/27 05:19:25;;;;;;;0.65;0.30;;;4.80;99.90;;;;;;5040265;28;20135;-85
2022/11/27 05:21:51;;;;;;;0.35;0.32;;;5.30;99.90;;;;;;5039874;28;20131;-86
2022/11/27 05:24:22;;;;;;;0.47;0.47;;;4.70;99.90;;;;;;5056545;28;20084;-86
2022/11/27 05:26:48;;;;;;;0.93;0.43;;;5.60;99.90;;;;;;5039392;28;20040;-86
2022/11/27 05:29:14;;;;;;;0.20;0.20;;;5.70;99.90;;;;;;5023354;28;20426;-86
2022/11/27 05:31:40;;;;;;;0.40;0.40;;;6.00;99.90;;;;;;5039686;28;20048;-86
2022/11/27 05:34:09;;;;;;;0.67;0.30;;;4.70;99.90;;;;;;5055624;28;20562;-86
2022/11/27 05:36:36;;;;;;;0.17;0.17;;;4.60;99.90;;;;;;5056331;28;20483;-86
2022/11/27 05:39:08;;;;;;;0.85;0.32;;;6.00;99.90;;;;;;5039108;28;20044;-86
2022/11/27 05:41:36;;;;;;;1.02;0.40;;;5.90;99.90;;;;;;5039673;28;20041;-86
2022/11/27 05:44:02;;;;;;;0.65;0.30;;;4.60;99.90;;;;;;5039295;28;20091;-86
2022/11/27 05:46:28;;;;;;;0.85;0.35;;;5.00;99.90;;;;;;5055912;28;20109;-86
2022/11/27 05:48:56;;;;;;;0.10;0.10;;;5.00;99.90;;;;;;5035983;28;20056;-86
2022/11/27 05:51:25;;;;;;;0.90;0.40;;;4.60;99.90;;;;;;5039380;28;20044;-86
2022/11/27 05:53:51;;;;;;;0.57;0.30;;;4.70;99.90;;;;;;5038814;28;20693;-86
2022/11/27 05:56:17;;;;;;;0.80;0.30;;;5.50;99.90;;;;;;5039105;28;20152;-86
2022/11/27 05:58:45;;;;;;;0.25;0.10;;;4.60;99.90;;;;;;5022793;28;20049;-86
2022/11/27 06:01:13;;;;;;;0.05;0.05;;;4.70;99.90;;;;;;5022175;28;20048;-86
2022/11/27 06:03:44;;;;;;;0.38;0.30;;;4.60;99.90;;;;;;5055524;28;20055;-86
2022/11/27 06:06:13;;;;;;;1.52;0.20;;;5.20;99.90;;;;;;5055455;28;20083;-86
2022/11/27 06:08:43;;;;;;;0.60;0.38;;;4.70;99.90;;;;;;5039050;28;20048;-86
2022/11/27 06:11:18;;;;;;;0.28;0.20;;;5.70;99.90;;;;;;5038415;28;20491;-86
2022/11/27 06:13:44;;;;;;;0.43;0.43;;;4.70;99.90;;;;;;5039700;28;20052;-86
2022/11/27 06:16:21;;;;;;;0.35;0.30;;;4.60;99.90;;;;;;5038554;28;20502;-86
2022/11/27 06:18:54;;;;;;;0.28;0.28;;;4.70;99.90;;;;;;5038424;28;20391;-86
2022/11/27 06:21:23;;;;;;;0.38;0.25;;;6.10;99.90;;;;;;5039415;28;20486;-85
2022/11/27 06:23:55;;;;;;;0.77;0.47;;;5.70;99.90;;;;;;5055502;28;20457;-86
2022/11/27 06:26:23;;;;;;;1.42;0.38;;;4.70;99.90;;;;;;5038694;28;20793;-86
2022/11/27 06:28:50;;;;;;;0.20;0.13;;;4.70;99.90;;;;;;5055330;28;20036;-86
2022/11/27 06:31:19;;;;;;;4.00;0.35;;;4.70;99.90;;;;;;5038265;28;20128;-85
2022/11/27 06:33:46;;;;;;;0.20;0.10;;;5.60;99.90;;;;;;5038694;28;20040;-86
2022/11/27 06:36:12;;;;;;;0.10;0.10;;;3.60;99.90;;;;;;5038209;28;20486;-86
2022/11/27 06:38:38;;;;;;;0.38;0.32;;;4.80;99.90;;;;;;5038511;28;20397;-86
2022/11/27 06:41:09;;;;;;;0.20;0.20;;;6.00;99.90;;;;;;5037808;28;20041;-86
2022/11/27 06:43:35;;;;;;;0.10;0.10;;;4.80;99.90;;;;;;5055507;28;20059;-86
2022/11/27 06:46:05;;;;;;;0.90;0.52;;;5.00;99.90;;;;;;5038108;28;20044;-86
2022/11/27 06:48:32;;;;;;;0.30;0.30;;;5.10;99.90;;;;;;5054137;28;20555;-86
2022/11/27 06:50:59;;;;;;;;;;;4.80;99.90;;;;;;5038261;28;20052;-86
2022/11/27 06:53:24;;;;;;;1.17;0.43;;;5.90;99.90;;;;;;5054773;28;19920;-86
2022/11/27 06:55:50;;;;;;;0.10;0.10;;;4.90;99.90;;;;;;5022036;28;20098;-86
2022/11/27 06:58:16;;;;;;;0.27;0.27;;;5.50;99.90;;;;;;5021450;28;20088;-86
2022/11/27 07:00:44;;;;;;;0.70;0.30;;;4.90;99.90;;;;;;5038118;28;20052;-86
2022/11/27 07:03:10;;;;;;;0.13;0.10;;;4.80;99.90;;;;;;5054636;28;20055;-84
2022/11/27 07:05:36;;;;;;;0.23;0.10;;;4.80;99.90;;;;;;5055211;28;20045;-86
2022/11/27 07:08:02;;;;;;;0.75;0.32;;;3.80;99.90;;;;;;5054375;28;20047;-86
2022/11/27 07:10:28;;;;;;;0.65;0.20;;;5.00;99.90;;;;;;5021434;28;20129;-86
2022/11/27 07:12:54;;;;;;;0.20;0.20;;;5.20;99.90;;;;;;5054835;28;20470;-86
2022/11/27 07:15:20;;;;;;;0.10;0.10;;;4.90;99.90;;;;;;5054419;28;20055;-86
2022/11/27 07:17:45;;;;;;;1.77;0.57;;;4.90;99.90;;;;;;5055332;28;20048;-86
2022/11/27 07:20:14;;;;;;;1.03;0.20;;;6.00;99.90;;;;;;5041331;28;20041;-86
2022/11/27 07:22:42;;;;;;;0.60;0.60;;;5.00;99.90;;;;;;5025924;28;20135;-86
2022/11/27 07:25:09;;;;;;;0.25;0.22;;;5.00;99.90;;;;;;5042202;28;20041;-86
2022/11/27 07:27:37;;;;;;;0.77;0.75;;;6.10;99.90;;;;;;5042036;28;20051;-86
2022/11/27 07:30:03;;;;;;;0.25;0.05;;;5.00;99.90;;;;;;5041325;28;20056;-86
2022/11/27 07:32:29;;;;;;;0.10;0.10;;;5.00;99.90;;;;;;5041407;28;20098;-86
2022/11/27 07:34:55;;;;;;;0.30;0.20;;;5.00;99.90;;;;;;5017415;28;20094;-86
2022/11/27 07:37:21;;;;;;;0.77;0.50;;;5.00;99.90;;;;;;5057421;28;20044;-87
2022/11/27 07:39:47;;;;;;;0.73;0.30;;;5.80;99.90;;;;;;5058309;28;20475;-87
2022/11/27 07:42:12;;;;;;;0.10;0.10;;;5.00;99.90;;;;;;5041460;28;20113;-87
2022/11/27 07:44:38;;;;;;;1.00;0.27;;;5.40;99.90;;;;;;5058808;28;20135;-85
2022/11/27 07:47:06;;;;;;;0.40;0.40;;;5.00;99.90;;;;;;5058338;28;20064;-86
2022/11/27 07:49:32;;;;;;;0.30;0.13;;;5.00;99.90;;;;;;5027536;28;20045;-85
2022/11/27 07:51:58;;;;;;;0.63;0.30;;;5.10;99.90;;;;;;5042299;28;20135;-86
2022/11/27 07:54:23;;;;;;;0.10;0.10;;;5.10;99.90;;;;;;5038427;28;20049;-87
2022/11/27 07:56:51;;;;;;;1.37;0.70;;;5.10;99.90;;;;;;5041500;28;20483;-85
2022/11/27 07:59:25;;;;;;;0.17;0.17;;;6.00;99.90;;;;;;5058736;28;20135;-91
2022/11/27 08:02:08;;;;;;;0.75;0.25;;;5.10;99.90;;;;;;5059114;28;20135;-88
2022/11/27 08:04:39;;;;;;;2.78;0.50;;;5.10;99.90;;;;;;5039416;28;20060;-90
2022/11/27 08:07:27;;;;;;;0.63;0.63;;;5.30;99.90;;;;;;5041595;28;20060;-88
2022/11/27 08:09:53;;;;;;;0.45;0.20;;;5.30;99.90;;;;;;5041383;28;20135;-89
2022/11/27 08:12:23;;;;;;;0.50;0.50;;;5.60;99.90;;;;;;5057360;28;20080;-88
2022/11/27 08:14:54;;;;;;;0.77;0.30;;;5.10;99.90;;;;;;5040506;28;20553;-89
2022/11/27 08:17:22;;;;;;;0.10;0.10;;;5.20;99.90;;;;;;5024902;28;20494;-89
2022/11/27 08:19:50;;;;;;;1.65;0.20;;;4.60;99.90;;;;;;5057491;28;20036;-89
2022/11/27 08:22:27;;;;;;;0.30;0.30;;;4.40;99.90;;;;;;5040301;28;20040;-90
2022/11/27 08:25:00;;;;;;;0.80;0.13;;;5.20;99.90;;;;;;5058581;28;20045;-88
2022/11/27 08:27:35;;;;;;;0.63;0.30;;;5.10;99.90;;;;;;5042229;28;20131;-88
2022/11/27 08:30:05;;;;;;;0.70;0.60;;;5.60;99.90;;;;;;5039606;28;20087;-87
2022/11/27 08:32:34;;;;;;;0.52;0.30;;;5.20;99.90;;;;;;5057231;28;20041;-87
2022/11/27 08:35:08;;;;;;;0.68;0.52;;;5.20;99.90;;;;;;5041245;28;20105;-88
2022/11/27 08:37:45;;;;;;;0.75;0.22;;;5.20;99.90;;;;;;5057566;28;20049;-90
2022/11/27 08:40:16;;;;;;;1.38;0.22;;;6.40;99.90;;;;;;5058183;28;20382;-87
2022/11/27 08:50:00;;;;;;;0.10;0.10;;;5.10;99.90;;;;;;5051690;28;20190;-89
2022/11/27 08:52:26;;;;;;;0.82;0.10;;;5.50;99.90;;;;;;5056906;28;20044;-93
2022/11/27 08:57:43;;;;;;;0.43;0.20;;;5.40;99.90;;;;;;5030047;28;20082;-90
2022/11/27 09:00:26;;;;;;;0.47;0.47;;;6.70;99.90;;;;;;5043910;28;20083;-93
2022/11/27 09:02:55;;;;;;;0.77;0.30;;;5.50;99.90;;;;;;5043485;28;20048;-93
2022/11/27 09:06:02;;;;;;;0.20;0.20;;;4.50;99.90;;;;;;5042383;28;20059;-92
2022/11/27 09:08:46;;;;;;;0.70;0.40;;;6.10;99.90;;;;;;5077149;28;20059;-91
2022/11/27 09:11:37;;;;;;;0.68;0.20;;;6.70;99.90;;;;;;5041262;28;20102;-94
2022/11/27 09:14:11;;;;;;;1.30;0.60;;;6.00;99.90;;;;;;5041782;28;20055;-95
2022/11/27 09:16:39;;;;;;;0.38;0.20;;;5.50;99.90;;;;;;5057096;28;20076;-93
2022/11/27 09:19:20;;;;;;;1.35;0.50;;;6.00;99.90;;;;;;5024301;28;20509;-92
2022/11/27 09:22:26;;;;;;;0.77;0.30;;;4.70;99.90;;;;;;5040888;28;20040;-93
2022/11/27 09:25:48;;;;;;;0.47;0.35;;;5.50;99.90;;;;;;5044584;28;20087;-93
2022/11/27 09:28:40;;;;;;;0.90;0.20;;;5.40;99.90;;;;;;5041886;28;20044;-92
2022/11/27 09:31:14;;;;;;;0.80;0.45;;;5.40;99.90;;;;;;5042316;28;20044;-92
2022/11/27 09:36:40;;;;;;;0.30;0.30;;;5.50;99.90;;;;;;5041913;28;20084;-91
2022/11/27 09:40:00;;;;;;;1.13;0.40;;;5.50;99.90;;;;;;5026146;28;20045;-92
2022/11/27 09:46:36;;;;;;;;;;;;;;;;;;;;;
2022/11/27 09:53:19;;;;;;;0.43;0.38;;;5.40;99.90;;;;;;5041660;28;20060;-89
2022/11/27 09:56:20;;;;;;;;;;;;;;;;;;;;;
2022/11/27 09:59:02;;;;;;;0.38;0.20;;;5.40;99.90;;;;;;5055386;28;20060;-90
2022/11/27 10:04:53;;;;;;;0.10;0.10;;;4.50;99.90;;;;;;5015626;28;20056;-90
2022/11/27 10:08:12;;;;;;;0.20;0.20;;;5.30;99.90;;;;;;5056026;28;20135;-90
2022/11/27 10:10:51;;;;;;;0.22;0.20;;;5.40;99.90;;;;;;5056299;28;20131;-88
2022/11/27 10:13:46;;;;;;;1.13;0.32;;;5.30;99.90;;;;;;5038833;28;20131;-88
2022/11/27 10:17:21;;;;;;;0.08;0.08;;;5.30;99.90;;;;;;5039032;28;20048;-88
2022/11/27 10:19:54;;;;;;;0.10;0.10;;;6.20;99.90;;;;;;5054602;28;20048;-88
2022/11/27 10:22:47;;;;;;;1.30;0.40;;;5.30;99.90;;;;;;5054543;28;20490;-88
2022/11/27 10:25:27;;;;;;;0.38;0.20;;;5.40;99.90;;;;;;5038631;28;20056;-88
2022/11/27 10:28:11;;;;;;;0.40;0.30;;;5.30;99.90;;;;;;5038960;28;20100;-85
2022/11/27 10:30:45;;;;;;;0.50;0.50;;;5.20;99.90;;;;;;5038068;28;20041;-88
2022/11/27 10:33:27;;;;;;;0.30;0.30;;;6.60;99.90;;;;;;5055733;28;20044;-87
2022/11/27 10:35:53;;;;;;;1.15;0.88;;;6.10;99.90;;;;;;5037971;28;20088;-88
2022/11/27 10:38:25;;;;;;;0.20;0.20;;;5.50;99.90;;;;;;5021927;28;20049;-86
2022/11/27 10:41:03;;;;;;;0.20;0.20;;;5.30;99.90;;;;;;5054581;28;20040;-86
2022/11/27 10:43:29;;;;;;;;;;;5.30;99.90;;;;;;5038620;28;20056;-86
2022/11/27 10:46:20;;;;;;;1.08;0.40;;;5.30;99.90;;;;;;5038061;28;20251;-86
2022/11/27 10:48:48;;;;;;;0.88;0.45;;;5.30;99.90;;;;;;5042088;28;20188;-86
2022/11/27 10:51:17;;;;;;;0.20;0.20;;;5.80;99.90;;;;;;5002272;28;20059;-85
2022/11/27 10:53:47;;;;;;;0.75;0.40;;;5.30;99.90;;;;;;5017228;28;20067;-86
2022/11/27 10:56:25;;;;;;;1.05;0.52;;;5.30;99.90;;;;;;5034371;28;20049;-85
2022/11/27 10:59:03;;;;;;;0.35;0.30;;;5.30;99.90;;;;;;5019700;28;20111;-86
2022/11/27 11:01:47;;;;;;;1.65;1.13;;;5.30;99.90;;;;;;5023599;28;20057;-85
2022/11/27 11:04:18;;;;;;;0.63;0.52;;;5.30;99.90;;;;;;5018852;28;20092;-85
2022/11/27 11:06:46;;;;;;;0.35;0.22;;;5.40;99.90;;;;;;5033852;28;20041;-86
2022/11/27 11:09:26;;;;;;;0.55;0.30;;;6.20;99.90;;;;;;5018098;28;20508;-84
2022/11/27 11:11:52;;;;;;;0.30;0.20;;;5.80;99.90;;;;;;5017901;28;20045;-86
2022/11/27 11:14:22;;;;;;;0.20;0.20;;;5.40;99.90;;;;;;5018703;28;20048;-85
2022/11/27 11:16:49;;;;;;;0.40;0.20;;;6.10;99.90;;;;;;5034252;28;20403;-85
2022/11/27 11:19:22;;;;;;;;;;;5.40;99.90;;;;;;5018883;28;20136;-85
2022/11/27 11:21:47;;;;;;;0.10;0.10;;;5.40;99.90;;;;;;5034160;28;19920;-84
2022/11/27 11:24:29;;;;;;;0.40;0.40;;;5.40;99.90;;;;;;5018235;28;20161;-85
2022/11/27 11:27:22;;;;;;;0.20;0.10;;;5.30;99.90;;;;;;5034234;28;20048;-85
2022/11/27 11:29:54;;;;;;;0.32;0.32;;;6.20;99.90;;;;;;5033724;28;20042;-85
2022/11/27 11:32:19;;;;;;;0.95;0.20;;;5.90;99.90;;;;;;5018273;28;20195;-86
2022/11/27 11:35:03;;;;;;;1.33;0.40;;;5.30;99.90;;;;;;5021947;28;20076;-90
2022/11/27 11:37:38;;;;;;;0.60;0.47;;;5.30;99.90;;;;;;5034870;28;20150;-85
2022/11/27 11:40:13;;;;;;;0.85;0.50;;;5.30;99.90;;;;;;5034678;28;20044;-85
2022/11/27 11:43:40;;;;;;;0.77;0.77;;;5.30;99.90;;;;;;5017760;28;20053;-85
2022/11/27 11:46:21;;;;;;;0.20;0.20;;;5.30;99.90;;;;;;4985094;28;20049;-86
2022/11/27 11:49:00;;;;;;;0.43;0.28;;;6.70;99.90;;;;;;5025611;28;20060;-86
2022/11/27 11:52:08;;;;;;;0.45;0.20;;;5.40;99.90;;;;;;5017880;28;20466;-86
2022/11/27 11:54:56;;;;;;;0.65;0.40;;;5.40;99.90;;;;;;5017478;28;20545;-85
2022/11/27 11:57:36;;;;;;;1.75;0.55;;;5.40;99.90;;;;;;5034583;28;20041;-85
2022/11/27 12:00:13;;;;;;;2.30;0.57;;;5.40;99.90;;;;;;5033868;28;20048;-85
2022/11/27 12:02:47;;;;;;;1.05;0.22;;;5.40;99.90;;;;;;5034463;28;20131;-85
2022/11/27 12:05:38;;;;;;;0.73;0.43;;;5.40;99.90;;;;;;5037235;28;20044;-84
2022/11/27 12:08:33;;;;;;;0.38;0.30;;;5.40;99.90;;;;;;5037440;28;20049;-83
2022/11/27 12:11:14;;;;;;;0.35;0.30;;;5.40;99.90;;;;;;5020913;28;20517;-86
2022/11/27 12:14:26;;;;;;;0.38;0.15;;;6.70;99.90;;;;;;5021410;28;20057;-83
2022/11/27 12:17:18;;;;;;;0.55;0.50;;;5.40;99.90;;;;;;5036598;28;20057;-85
2022/11/27 12:19:50;;;;;;;0.28;0.20;;;5.40;99.90;;;;;;5036702;28;20051;-85
2022/11/27 12:22:39;;;;;;;0.80;0.55;;;5.70;99.90;;;;;;5021065;28;20084;-85
2022/11/27 12:25:20;;;;;;;0.10;0.10;;;5.40;99.90;;;;;;5037260;28;20279;-85
2022/11/27 12:28:23;;;;;;;0.20;0.20;;;4.40;99.90;;;;;;5020468;28;20041;-86
2022/11/27 12:31:09;;;;;;;0.10;0.10;;;5.40;99.90;;;;;;5036842;28;20460;-85
2022/11/27 12:33:54;;;;;;;4.80;0.85;;;5.40;99.90;;;;;;5021185;28;20187;-85
2022/11/27 12:36:35;;;;;;;0.88;0.52;;;5.40;99.90;;;;;;5037486;28;20053;-84
2022/11/27 12:39:37;;;;;;;0.65;0.60;;;5.40;99.90;;;;;;5037155;28;20107;-84
2022/11/27 12:42:23;;;;;;;0.63;0.63;;;5.40;99.90;;;;;;5036978;28;20116;-86
2022/11/27 12:45:16;;;;;;;0.20;0.20;;;5.40;99.90;;;;;;5020400;28;20499;-84
2022/11/27 12:47:46;;;;;;;0.35;0.20;;;5.50;99.90;;;;;;5040273;28;20147;-86
2022/11/27 12:50:19;;;;;;;0.50;0.35;;;5.50;99.90;;;;;;5036584;28;20103;-86
2022/11/27 12:53:07;;;;;;;0.35;0.30;;;5.40;99.90;;;;;;5056780;28;20078;-88
2022/11/27 12:55:34;;;;;;;;;;;5.50;99.90;;;;;;5038147;28;20067;-85
2022/11/27 12:58:06;;;;;;;1.17;0.70;;;6.00;99.90;;;;;;5039908;28;19920;-85
2022/11/27 13:00:39;;;;;;;0.70;0.30;;;5.80;99.90;;;;;;5056927;28;20049;-85
2022/11/27 13:03:27;;;;;;;0.63;0.40;;;5.50;99.90;;;;;;5055817;28;20491;-84
2022/11/27 13:06:10;;;;;;;0.25;0.25;;;5.50;99.90;;;;;;5039801;28;20094;-88
2022/11/27 13:08:36;;;;;;;0.45;0.43;;;5.50;99.90;;;;;;5040016;28;20098;-92
2022/11/27 13:11:09;;;;;;;0.77;0.23;;;5.50;99.90;;;;;;5035838;28;20041;-83
2022/11/27 13:14:13;;;;;;;2.30;0.30;;;5.50;99.90;;;;;;5056132;28;20041;-90
2022/11/27 13:16:47;;;;;;;0.38;0.32;;;5.50;99.90;;;;;;5055581;28;20087;-84
2022/11/27 13:19:34;;;;;;;1.50;0.57;;;5.20;99.90;;;;;;5036143;28;20127;-88
2022/11/27 13:22:33;;;;;;;0.63;0.52;;;6.10;99.90;;;;;;5033004;28;20056;-91
2022/11/27 13:25:10;;;;;;;;;;;5.60;99.90;;;;;;5032612;28;20060;-90
2022/11/27 13:28:05;;;;;;;1.85;0.35;;;5.50;99.90;;;;;;5040715;28;19921;-90
2022/11/27 13:30:50;;;;;;;;;;;;;;;;;;;;;
2022/11/27 13:33:44;;;;;;;0.20;0.20;;;5.60;99.90;;;;;;5047998;28;20052;-92
2022/11/27 13:36:46;;;;;;;0.85;0.30;;;5.50;99.90;;;;;;4992510;28;20076;-87
2022/11/27 13:39:56;;;;;;;0.10;0.05;;;5.50;99.90;;;;;;4991254;28;20139;-91
2022/11/27 13:42:22;;;;;;;0.45;0.30;;;5.10;99.90;;;;;;5040445;28;20048;-92
2022/11/27 13:45:02;;;;;;;0.33;0.30;;;5.50;99.90;;;;;;5039445;28;20052;-88
2022/11/27 13:47:44;;;;;;;1.25;0.50;;;6.80;99.90;;;;;;5024308;28;20826;-86
2022/11/27 13:50:13;;;;;;;3.63;0.40;;;5.50;99.90;;;;;;5039392;28;20139;-87
2022/11/27 13:52:58;;;;;;;0.80;0.60;;;5.50;99.90;;;;;;5040576;28;20086;-85
2022/11/27 13:55:33;;;;;;;0.55;0.55;;;4.70;99.90;;;;;;5040735;28;20106;-87
2022/11/27 13:58:01;;;;;;;1.20;1.10;;;5.50;99.90;;;;;;5041869;28;20052;-88
2022/11/27 14:00:53;;;;;;;;;;;;;;;;;;;;;
2022/11/27 14:03:35;;;;;;;1.30;0.30;;;5.50;99.90;;;;;;5059923;28;20044;-88
2022/11/27 14:06:56;;;;;;;0.43;0.35;;;5.50;99.90;;;;;;5046377;28;20049;-93
2022/11/27 14:09:35;;;;;;;0.95;0.28;;;4.90;99.90;;;;;;5043146;28;20064;-87